sensor_id;sensor_type;location;lat;lon;timestamp;pressure;altitude;pressure_sealevel;temperature;humidity
28004;BME280;15330;51.234;6.754;2023-08-21T00:00:15;101638.81;;;22.67;73.79
28004;BME280;15330;51.234;6.754;2023-08-21T00:02:40;101639.44;;;22.69;73.31
28004;BME280;15330;51.234;6.754;2023-08-21T00:05:06;101639.72;;;22.61;74.20
28004;BME280;15330;51.234;6.754;2023-08-21T00:07:31;101639.00;;;22.48;74.09
28004;BME280;15330;51.234;6.754;2023-08-21T00:09:57;101633.13;;;22.19;75.57
28004;BME280;15330;51.234;6.754;2023-08-21T00:12:22;101641.25;;;21.81;76.96
28004;BME280;15330;51.234;6.754;2023-08-21T00:14:47;101641.41;;;21.93;77.65
28004;BME280;15330;51.234;6.754;2023-08-21T00:17:13;101629.78;;;21.73;77.34
28004;BME280;15330;51.234;6.754;2023-08-21T00:19:38;101632.91;;;21.25;79.77
28004;BME280;15330;51.234;6.754;2023-08-21T00:22:03;101630.56;;;21.29;80.43
28004;BME280;15330;51.234;6.754;2023-08-21T00:24:29;101631.63;;;21.34;80.17
28004;BME280;15330;51.234;6.754;2023-08-21T00:26:54;101636.78;;;21.55;79.38
28004;BME280;15330;51.234;6.754;2023-08-21T00:29:20;101627.94;;;21.67;78.61
28004;BME280;15330;51.234;6.754;2023-08-21T00:31:45;101620.38;;;21.69;78.08
28004;BME280;15330;51.234;6.754;2023-08-21T00:34:11;101619.41;;;21.50;79.10
28004;BME280;15330;51.234;6.754;2023-08-21T00:36:36;101616.50;;;21.45;79.26
28004;BME280;15330;51.234;6.754;2023-08-21T00:39:01;101622.28;;;21.68;78.33
28004;BME280;15330;51.234;6.754;2023-08-21T00:41:27;101617.25;;;21.65;78.63
28004;BME280;15330;51.234;6.754;2023-08-21T00:43:52;101622.06;;;21.70;78.46
28004;BME280;15330;51.234;6.754;2023-08-21T00:46:17;101620.88;;;21.52;79.28
28004;BME280;15330;51.234;6.754;2023-08-21T00:48:44;101626.06;;;21.60;78.67
28004;BME280;15330;51.234;6.754;2023-08-21T00:51:10;101621.25;;;21.63;78.53
28004;BME280;15330;51.234;6.754;2023-08-21T00:53:37;101621.25;;;21.63;78.72
28004;BME280;15330;51.234;6.754;2023-08-21T00:56:03;101629.00;;;21.66;78.28
28004;BME280;15330;51.234;6.754;2023-08-21T00:58:28;101614.31;;;21.67;78.74
28004;BME280;15330;51.234;6.754;2023-08-21T01:00:54;101633.09;;;21.81;77.99
28004;BME280;15330;51.234;6.754;2023-08-21T01:03:20;101628.94;;;21.79;78.31
28004;BME280;15330;51.234;6.754;2023-08-21T01:05:45;101615.78;;;21.69;78.29
28004;BME280;15330;51.234;6.754;2023-08-21T01:10:56;101631.34;;;21.55;79.07
28004;BME280;15330;51.234;6.754;2023-08-21T01:13:39;101638.66;;;21.55;78.99
28004;BME280;15330;51.234;6.754;2023-08-21T01:16:07;101632.13;;;21.63;78.91
28004;BME280;15330;51.234;6.754;2023-08-21T01:18:33;101637.31;;;21.71;78.78
28004;BME280;15330;51.234;6.754;2023-08-21T01:21:01;101634.94;;;21.43;79.54
28004;BME280;15330;51.234;6.754;2023-08-21T01:23:37;101649.13;;;21.51;79.67
28004;BME280;15330;51.234;6.754;2023-08-21T01:26:04;101644.50;;;21.65;79.28
28004;BME280;15330;51.234;6.754;2023-08-21T01:28:31;101641.50;;;21.73;80.12
28004;BME280;15330;51.234;6.754;2023-08-21T01:33:29;101644.28;;;21.67;79.60
28004;BME280;15330;51.234;6.754;2023-08-21T01:35:59;101646.31;;;21.78;79.25
28004;BME280;15330;51.234;6.754;2023-08-21T01:38:31;101650.34;;;21.69;79.65
28004;BME280;15330;51.234;6.754;2023-08-21T01:40:57;101648.97;;;21.40;79.91
28004;BME280;15330;51.234;6.754;2023-08-21T01:43:23;101646.63;;;21.56;79.51
28004;BME280;15330;51.234;6.754;2023-08-21T01:45:49;101645.31;;;21.66;79.34
28004;BME280;15330;51.234;6.754;2023-08-21T01:48:14;101646.34;;;21.71;78.96
28004;BME280;15330;51.234;6.754;2023-08-21T01:50:40;101645.28;;;21.72;78.94
28004;BME280;15330;51.234;6.754;2023-08-21T01:53:05;101639.75;;;21.41;80.27
28004;BME280;15330;51.234;6.754;2023-08-21T01:55:30;101637.44;;;21.44;80.42
28004;BME280;15330;51.234;6.754;2023-08-21T01:57:56;101639.97;;;21.46;79.43
28004;BME280;15330;51.234;6.754;2023-08-21T02:00:21;101638.25;;;21.58;79.86
28004;BME280;15330;51.234;6.754;2023-08-21T02:02:46;101633.22;;;21.55;79.59
28004;BME280;15330;51.234;6.754;2023-08-21T02:05:12;101635.06;;;21.61;79.44
28004;BME280;15330;51.234;6.754;2023-08-21T02:07:37;101630.28;;;21.56;79.97
28004;BME280;15330;51.234;6.754;2023-08-21T02:10:03;101624.84;;;21.50;79.54
28004;BME280;15330;51.234;6.754;2023-08-21T02:12:29;101627.97;;;21.53;79.45
28004;BME280;15330;51.234;6.754;2023-08-21T02:14:54;101619.59;;;21.55;79.23
28004;BME280;15330;51.234;6.754;2023-08-21T02:17:20;101617.34;;;21.39;80.56
28004;BME280;15330;51.234;6.754;2023-08-21T02:19:45;101615.00;;;21.55;79.99
28004;BME280;15330;51.234;6.754;2023-08-21T02:22:10;101624.38;;;21.59;79.03
28004;BME280;15330;51.234;6.754;2023-08-21T02:24:36;101626.06;;;21.60;78.93
28004;BME280;15330;51.234;6.754;2023-08-21T02:27:01;101628.78;;;21.60;78.70
28004;BME280;15330;51.234;6.754;2023-08-21T02:29:28;101621.91;;;21.58;78.89
28004;BME280;15330;51.234;6.754;2023-08-21T02:31:53;101627.72;;;21.61;79.18
28004;BME280;15330;51.234;6.754;2023-08-21T02:34:20;101631.50;;;21.67;78.89
28004;BME280;15330;51.234;6.754;2023-08-21T02:36:45;101626.31;;;21.59;79.69
28004;BME280;15330;51.234;6.754;2023-08-21T02:39:11;101621.50;;;21.54;79.75
28004;BME280;15330;51.234;6.754;2023-08-21T02:41:39;101619.25;;;21.32;80.20
28004;BME280;15330;51.234;6.754;2023-08-21T02:44:04;101613.56;;;21.46;79.87
28004;BME280;15330;51.234;6.754;2023-08-21T02:46:29;101625.94;;;21.49;79.77
28004;BME280;15330;51.234;6.754;2023-08-21T02:48:55;101620.84;;;21.59;79.72
28004;BME280;15330;51.234;6.754;2023-08-21T02:51:20;101625.47;;;21.52;79.73
28004;BME280;15330;51.234;6.754;2023-08-21T02:53:45;101624.47;;;21.40;80.42
28004;BME280;15330;51.234;6.754;2023-08-21T02:56:11;101625.72;;;21.44;80.21
28004;BME280;15330;51.234;6.754;2023-08-21T02:58:36;101631.63;;;21.34;80.82
28004;BME280;15330;51.234;6.754;2023-08-21T03:01:02;101621.31;;;21.43;80.52
28004;BME280;15330;51.234;6.754;2023-08-21T03:03:27;101628.84;;;21.47;80.86
28004;BME280;15330;51.234;6.754;2023-08-21T03:05:52;101621.91;;;21.51;80.91
28004;BME280;15330;51.234;6.754;2023-08-21T03:08:18;101622.78;;;21.39;81.14
28004;BME280;15330;51.234;6.754;2023-08-21T03:10:43;101618.19;;;21.39;80.99
28004;BME280;15330;51.234;6.754;2023-08-21T03:13:08;101617.81;;;21.36;81.24
28004;BME280;15330;51.234;6.754;2023-08-21T03:15:34;101613.59;;;21.33;80.81
28004;BME280;15330;51.234;6.754;2023-08-21T03:18:00;101605.88;;;21.37;80.95
28004;BME280;15330;51.234;6.754;2023-08-21T03:20:25;101603.97;;;21.31;81.26
28004;BME280;15330;51.234;6.754;2023-08-21T03:22:51;101609.88;;;21.28;81.21
28004;BME280;15330;51.234;6.754;2023-08-21T03:25:16;101610.28;;;21.24;80.93
28004;BME280;15330;51.234;6.754;2023-08-21T03:27:41;101610.91;;;21.27;81.63
28004;BME280;15330;51.234;6.754;2023-08-21T03:30:10;101613.00;;;21.24;81.19
28004;BME280;15330;51.234;6.754;2023-08-21T03:32:35;101609.25;;;21.19;81.48
28004;BME280;15330;51.234;6.754;2023-08-21T03:35:01;101606.09;;;21.15;81.83
28004;BME280;15330;51.234;6.754;2023-08-21T03:37:26;101610.34;;;20.78;83.15
28004;BME280;15330;51.234;6.754;2023-08-21T03:39:51;101606.13;;;21.02;82.26
28004;BME280;15330;51.234;6.754;2023-08-21T03:42:17;101608.44;;;21.05;82.53
28004;BME280;15330;51.234;6.754;2023-08-21T03:44:42;101614.06;;;21.10;82.09
28004;BME280;15330;51.234;6.754;2023-08-21T03:47:08;101610.72;;;21.15;81.46
28004;BME280;15330;51.234;6.754;2023-08-21T03:49:33;101614.91;;;21.17;81.66
28004;BME280;15330;51.234;6.754;2023-08-21T03:51:58;101611.34;;;21.17;81.35
28004;BME280;15330;51.234;6.754;2023-08-21T03:54:24;101610.72;;;21.15;81.73
28004;BME280;15330;51.234;6.754;2023-08-21T03:56:49;101611.13;;;21.12;81.34
28004;BME280;15330;51.234;6.754;2023-08-21T03:59:14;101613.25;;;21.03;81.06
28004;BME280;15330;51.234;6.754;2023-08-21T04:01:40;101614.72;;;20.99;81.16
28004;BME280;15330;51.234;6.754;2023-08-21T04:04:05;101617.84;;;21.03;81.21
28004;BME280;15330;51.234;6.754;2023-08-21T04:06:31;101615.75;;;21.05;81.16
28004;BME280;15330;51.234;6.754;2023-08-21T04:08:56;101617.19;;;21.14;81.17
28004;BME280;15330;51.234;6.754;2023-08-21T04:11:21;101618.25;;;21.13;81.26
28004;BME280;15330;51.234;6.754;2023-08-21T04:13:47;101609.28;;;20.93;82.13
28004;BME280;15330;51.234;6.754;2023-08-21T04:16:12;101615.97;;;21.03;83.05
28004;BME280;15330;51.234;6.754;2023-08-21T04:18:38;101614.47;;;21.14;81.47
28004;BME280;15330;51.234;6.754;2023-08-21T04:21:04;101619.50;;;20.97;81.07
28004;BME280;15330;51.234;6.754;2023-08-21T04:23:29;101621.19;;;20.98;81.76
28004;BME280;15330;51.234;6.754;2023-08-21T04:26:02;101628.28;;;21.19;81.21
28004;BME280;15330;51.234;6.754;2023-08-21T04:28:29;101626.41;;;21.13;80.96
28004;BME280;15330;51.234;6.754;2023-08-21T04:30:55;101629.97;;;21.13;80.92
28004;BME280;15330;51.234;6.754;2023-08-21T04:33:22;101619.28;;;21.18;81.13
28004;BME280;15330;51.234;6.754;2023-08-21T04:35:47;101635.84;;;21.23;80.62
28004;BME280;15330;51.234;6.754;2023-08-21T04:38:13;101628.72;;;21.22;81.53
28004;BME280;15330;51.234;6.754;2023-08-21T04:40:38;101623.88;;;21.38;80.98
28004;BME280;15330;51.234;6.754;2023-08-21T04:43:03;101618.88;;;21.28;79.92
28004;BME280;15330;51.234;6.754;2023-08-21T04:45:29;101617.00;;;21.22;80.62
28004;BME280;15330;51.234;6.754;2023-08-21T04:47:54;101616.78;;;21.23;80.53
28004;BME280;15330;51.234;6.754;2023-08-21T04:50:20;101629.34;;;21.05;81.02
28004;BME280;15330;51.234;6.754;2023-08-21T04:52:45;101622.22;;;21.17;81.81
28004;BME280;15330;51.234;6.754;2023-08-21T04:55:10;101622.47;;;20.82;82.73
28004;BME280;15330;51.234;6.754;2023-08-21T04:57:36;101625.81;;;20.91;83.33
28004;BME280;15330;51.234;6.754;2023-08-21T05:00:01;101629.34;;;21.11;82.30
28004;BME280;15330;51.234;6.754;2023-08-21T05:02:29;101626.84;;;21.03;82.00
28004;BME280;15330;51.234;6.754;2023-08-21T05:04:54;101627.28;;;21.07;81.96
28004;BME280;15330;51.234;6.754;2023-08-21T05:07:19;101632.72;;;21.07;82.01
28004;BME280;15330;51.234;6.754;2023-08-21T05:09:45;101639.19;;;21.26;81.85
28004;BME280;15330;51.234;6.754;2023-08-21T05:12:10;101642.28;;;21.36;81.62
28004;BME280;15330;51.234;6.754;2023-08-21T05:14:35;101648.81;;;21.28;81.47
28004;BME280;15330;51.234;6.754;2023-08-21T05:17:02;101636.81;;;21.42;81.44
28004;BME280;15330;51.234;6.754;2023-08-21T05:19:28;101635.72;;;21.50;80.81
28004;BME280;15330;51.234;6.754;2023-08-21T05:21:53;101635.81;;;21.37;81.82
28004;BME280;15330;51.234;6.754;2023-08-21T05:24:18;101637.03;;;21.47;81.27
28004;BME280;15330;51.234;6.754;2023-08-21T05:26:44;101624.50;;;21.33;81.78
28004;BME280;15330;51.234;6.754;2023-08-21T05:29:09;101629.31;;;21.38;82.11
28004;BME280;15330;51.234;6.754;2023-08-21T05:31:34;101633.38;;;21.67;81.21
28004;BME280;15330;51.234;6.754;2023-08-21T05:34:00;101629.16;;;21.71;80.19
28004;BME280;15330;51.234;6.754;2023-08-21T05:36:25;101631.88;;;21.71;80.19
28004;BME280;15330;51.234;6.754;2023-08-21T05:38:50;101635.81;;;21.81;80.31
28004;BME280;15330;51.234;6.754;2023-08-21T05:41:16;101620.19;;;21.64;79.62
28004;BME280;15330;51.234;6.754;2023-08-21T05:43:42;101646.03;;;21.99;80.14
28004;BME280;15330;51.234;6.754;2023-08-21T05:46:07;101639.22;;;22.15;79.55
28004;BME280;15330;51.234;6.754;2023-08-21T05:48:33;101644.47;;;22.16;79.56
28004;BME280;15330;51.234;6.754;2023-08-21T05:50:59;101636.13;;;22.11;79.28
28004;BME280;15330;51.234;6.754;2023-08-21T05:53:24;101635.31;;;22.04;79.39
28004;BME280;15330;51.234;6.754;2023-08-21T05:55:50;101647.25;;;22.03;79.97
28004;BME280;15330;51.234;6.754;2023-08-21T05:58:15;101653.56;;;22.35;79.44
28004;BME280;15330;51.234;6.754;2023-08-21T06:00:41;101657.09;;;22.42;78.57
28004;BME280;15330;51.234;6.754;2023-08-21T06:03:07;101663.13;;;22.44;78.21
28004;BME280;15330;51.234;6.754;2023-08-21T06:05:32;101658.69;;;22.50;78.21
28004;BME280;15330;51.234;6.754;2023-08-21T06:07:58;101654.69;;;22.52;77.79
28004;BME280;15330;51.234;6.754;2023-08-21T06:10:23;101656.09;;;22.61;78.53
28004;BME280;15330;51.234;6.754;2023-08-21T06:12:48;101662.38;;;22.62;77.52
28004;BME280;15330;51.234;6.754;2023-08-21T06:15:15;101661.47;;;22.68;78.12
28004;BME280;15330;51.234;6.754;2023-08-21T06:17:41;101666.03;;;22.81;77.55
28004;BME280;15330;51.234;6.754;2023-08-21T06:20:07;101651.81;;;22.72;75.85
28004;BME280;15330;51.234;6.754;2023-08-21T06:22:36;101660.75;;;22.54;76.99
28004;BME280;15330;51.234;6.754;2023-08-21T06:25:02;101667.78;;;22.68;76.33
28004;BME280;15330;51.234;6.754;2023-08-21T06:27:27;101663.44;;;22.86;76.22
28004;BME280;15330;51.234;6.754;2023-08-21T06:29:53;101663.53;;;23.40;77.42
28004;BME280;15330;51.234;6.754;2023-08-21T06:32:18;101661.13;;;23.69;73.78
28004;BME280;15330;51.234;6.754;2023-08-21T06:34:44;101665.59;;;24.11;73.32
28004;BME280;15330;51.234;6.754;2023-08-21T06:37:09;101667.25;;;23.83;74.26
28004;BME280;15330;51.234;6.754;2023-08-21T06:39:34;101663.13;;;24.51;74.02
28004;BME280;15330;51.234;6.754;2023-08-21T06:42:00;101668.47;;;25.00;70.09
28004;BME280;15330;51.234;6.754;2023-08-21T06:44:26;101670.72;;;25.26;68.55
28004;BME280;15330;51.234;6.754;2023-08-21T06:46:51;101676.38;;;25.59;70.07
28004;BME280;15330;51.234;6.754;2023-08-21T06:49:16;101672.81;;;25.71;66.56
28004;BME280;15330;51.234;6.754;2023-08-21T06:51:43;101677.19;;;25.83;66.43
28004;BME280;15330;51.234;6.754;2023-08-21T06:54:08;101678.22;;;26.22;66.22
28004;BME280;15330;51.234;6.754;2023-08-21T06:56:33;101684.50;;;26.35;62.69
28004;BME280;15330;51.234;6.754;2023-08-21T06:58:59;101683.69;;;26.22;63.56
28004;BME280;15330;51.234;6.754;2023-08-21T07:01:24;101676.25;;;26.96;64.05
28004;BME280;15330;51.234;6.754;2023-08-21T07:03:50;101680.19;;;27.39;61.61
28004;BME280;15330;51.234;6.754;2023-08-21T07:06:15;101682.66;;;27.79;59.96
28004;BME280;15330;51.234;6.754;2023-08-21T07:08:41;101686.63;;;28.15;60.26
28004;BME280;15330;51.234;6.754;2023-08-21T07:11:06;101686.47;;;28.22;59.61
28004;BME280;15330;51.234;6.754;2023-08-21T07:13:36;101696.84;;;27.54;57.65
28004;BME280;15330;51.234;6.754;2023-08-21T07:16:01;101686.28;;;27.63;59.06
28004;BME280;15330;51.234;6.754;2023-08-21T07:18:29;101687.38;;;27.45;56.05
28004;BME280;15330;51.234;6.754;2023-08-21T07:20:54;101690.38;;;27.44;59.67
28004;BME280;15330;51.234;6.754;2023-08-21T07:23:20;101695.59;;;27.23;59.50
28004;BME280;15330;51.234;6.754;2023-08-21T07:25:45;101689.63;;;27.48;58.19
28004;BME280;15330;51.234;6.754;2023-08-21T07:28:10;101698.06;;;27.80;58.61
28004;BME280;15330;51.234;6.754;2023-08-21T07:30:39;101700.47;;;27.98;55.76
28004;BME280;15330;51.234;6.754;2023-08-21T07:33:04;101695.91;;;27.82;58.24
28004;BME280;15330;51.234;6.754;2023-08-21T07:35:30;101697.16;;;28.18;56.38
28004;BME280;15330;51.234;6.754;2023-08-21T07:37:56;101701.72;;;28.66;56.05
28004;BME280;15330;51.234;6.754;2023-08-21T07:40:21;101697.63;;;29.01;55.59
28004;BME280;15330;51.234;6.754;2023-08-21T07:42:47;101695.13;;;28.94;54.33
28004;BME280;15330;51.234;6.754;2023-08-21T07:45:12;101701.06;;;29.18;53.66
28004;BME280;15330;51.234;6.754;2023-08-21T07:47:38;101692.50;;;29.56;53.67
28004;BME280;15330;51.234;6.754;2023-08-21T07:50:04;101700.34;;;29.33;53.73
28004;BME280;15330;51.234;6.754;2023-08-21T07:52:30;101704.91;;;29.59;52.44
28004;BME280;15330;51.234;6.754;2023-08-21T07:54:55;101705.84;;;29.85;53.12
28004;BME280;15330;51.234;6.754;2023-08-21T07:57:21;101706.56;;;30.33;51.41
28004;BME280;15330;51.234;6.754;2023-08-21T07:59:46;101697.06;;;29.88;51.90
28004;BME280;15330;51.234;6.754;2023-08-21T08:02:12;101691.75;;;28.87;51.79
28004;BME280;15330;51.234;6.754;2023-08-21T08:04:38;101697.81;;;28.89;51.42
28004;BME280;15330;51.234;6.754;2023-08-21T08:07:04;101699.81;;;29.93;51.32
28004;BME280;15330;51.234;6.754;2023-08-21T08:09:29;101697.47;;;30.37;50.63
28004;BME280;15330;51.234;6.754;2023-08-21T08:11:54;101703.34;;;30.71;48.91
28004;BME280;15330;51.234;6.754;2023-08-21T08:14:20;101701.94;;;30.84;49.25
28004;BME280;15330;51.234;6.754;2023-08-21T08:16:45;101698.16;;;29.35;49.06
28004;BME280;15330;51.234;6.754;2023-08-21T08:19:11;101697.59;;;29.85;48.40
28004;BME280;15330;51.234;6.754;2023-08-21T08:21:36;101692.66;;;28.12;53.21
28004;BME280;15330;51.234;6.754;2023-08-21T08:24:02;101701.56;;;30.09;50.89
28004;BME280;15330;51.234;6.754;2023-08-21T08:26:27;101700.56;;;30.71;47.69
28004;BME280;15330;51.234;6.754;2023-08-21T08:28:52;101704.44;;;31.11;47.10
28004;BME280;15330;51.234;6.754;2023-08-21T08:31:18;101703.06;;;30.73;45.75
28004;BME280;15330;51.234;6.754;2023-08-21T08:33:44;101700.03;;;31.15;45.66
28004;BME280;15330;51.234;6.754;2023-08-21T08:36:10;101699.16;;;30.84;45.00
28004;BME280;15330;51.234;6.754;2023-08-21T08:38:35;101695.81;;;31.37;45.84
28004;BME280;15330;51.234;6.754;2023-08-21T08:41:07;101704.94;;;31.33;46.57
28004;BME280;15330;51.234;6.754;2023-08-21T08:43:38;101696.34;;;31.40;46.21
28004;BME280;15330;51.234;6.754;2023-08-21T08:46:06;101695.44;;;31.75;43.69
28004;BME280;15330;51.234;6.754;2023-08-21T08:48:34;101696.91;;;31.42;44.60
28004;BME280;15330;51.234;6.754;2023-08-21T08:51:01;101695.59;;;30.73;44.88
28004;BME280;15330;51.234;6.754;2023-08-21T08:53:27;101709.34;;;30.43;48.10
28004;BME280;15330;51.234;6.754;2023-08-21T08:55:52;101706.63;;;31.04;47.67
28004;BME280;15330;51.234;6.754;2023-08-21T08:58:18;101699.50;;;31.92;44.66
28004;BME280;15330;51.234;6.754;2023-08-21T09:00:43;101700.22;;;31.38;44.59
28004;BME280;15330;51.234;6.754;2023-08-21T09:03:08;101706.34;;;30.85;43.83
28004;BME280;15330;51.234;6.754;2023-08-21T09:05:35;101709.34;;;31.39;45.30
28004;BME280;15330;51.234;6.754;2023-08-21T09:08:13;101706.19;;;31.86;45.47
28004;BME280;15330;51.234;6.754;2023-08-21T09:10:40;101704.47;;;32.39;44.41
28004;BME280;15330;51.234;6.754;2023-08-21T09:13:14;101702.63;;;31.70;43.48
28004;BME280;15330;51.234;6.754;2023-08-21T09:15:42;101712.94;;;31.40;46.05
28004;BME280;15330;51.234;6.754;2023-08-21T09:18:11;101693.22;;;31.71;43.37
28004;BME280;15330;51.234;6.754;2023-08-21T09:20:37;101704.47;;;31.95;43.96
28004;BME280;15330;51.234;6.754;2023-08-21T09:23:02;101701.00;;;32.24;43.73
28004;BME280;15330;51.234;6.754;2023-08-21T09:25:33;101700.31;;;30.83;47.37
28004;BME280;15330;51.234;6.754;2023-08-21T09:27:59;101698.56;;;32.12;45.32
28004;BME280;15330;51.234;6.754;2023-08-21T09:30:24;101699.84;;;32.30;43.96
28004;BME280;15330;51.234;6.754;2023-08-21T09:33:00;101691.38;;;32.55;43.86
28004;BME280;15330;51.234;6.754;2023-08-21T09:35:26;101695.25;;;32.54;44.34
28004;BME280;15330;51.234;6.754;2023-08-21T09:37:52;101685.09;;;32.39;42.05
28004;BME280;15330;51.234;6.754;2023-08-21T09:40:21;101695.41;;;32.73;44.26
28004;BME280;15330;51.234;6.754;2023-08-21T09:42:52;101687.88;;;32.78;43.53
28004;BME280;15330;51.234;6.754;2023-08-21T09:45:23;101687.00;;;32.44;42.53
28004;BME280;15330;51.234;6.754;2023-08-21T09:47:50;101699.78;;;32.79;41.78
28004;BME280;15330;51.234;6.754;2023-08-21T09:50:17;101694.22;;;32.45;42.84
28004;BME280;15330;51.234;6.754;2023-08-21T09:52:43;101694.28;;;32.35;43.56
28004;BME280;15330;51.234;6.754;2023-08-21T09:55:09;101690.13;;;32.76;43.23
28004;BME280;15330;51.234;6.754;2023-08-21T09:57:36;101691.41;;;32.84;42.33
28004;BME280;15330;51.234;6.754;2023-08-21T10:00:03;101687.97;;;31.70;44.01
28004;BME280;15330;51.234;6.754;2023-08-21T10:02:42;101692.41;;;32.25;42.04
28004;BME280;15330;51.234;6.754;2023-08-21T10:05:11;101687.09;;;31.85;41.18
28004;BME280;15330;51.234;6.754;2023-08-21T10:07:38;101685.59;;;32.02;42.04
28004;BME280;15330;51.234;6.754;2023-08-21T10:10:04;101673.59;;;31.73;42.04
28004;BME280;15330;51.234;6.754;2023-08-21T10:12:30;101675.44;;;32.37;42.59
28004;BME280;15330;51.234;6.754;2023-08-21T10:14:55;101680.56;;;32.15;43.02
28004;BME280;15330;51.234;6.754;2023-08-21T10:17:21;101677.91;;;32.77;40.99
28004;BME280;15330;51.234;6.754;2023-08-21T10:19:55;101676.88;;;32.97;40.81
28004;BME280;15330;51.234;6.754;2023-08-21T10:22:44;101676.13;;;32.58;40.54
28004;BME280;15330;51.234;6.754;2023-08-21T10:25:21;101658.56;;;32.33;40.23
28004;BME280;15330;51.234;6.754;2023-08-21T10:27:53;101663.13;;;29.87;44.40
28004;BME280;15330;51.234;6.754;2023-08-21T10:30:26;101672.41;;;31.84;42.05
28004;BME280;15330;51.234;6.754;2023-08-21T10:32:53;101676.94;;;31.65;40.45
28004;BME280;15330;51.234;6.754;2023-08-21T10:35:22;101679.84;;;31.04;43.01
28004;BME280;15330;51.234;6.754;2023-08-21T10:38:07;101669.72;;;31.59;40.12
28004;BME280;15330;51.234;6.754;2023-08-21T10:40:34;101678.75;;;30.70;42.51
28004;BME280;15330;51.234;6.754;2023-08-21T10:43:00;101669.06;;;30.67;42.71
28004;BME280;15330;51.234;6.754;2023-08-21T10:45:25;101674.03;;;30.85;43.15
28004;BME280;15330;51.234;6.754;2023-08-21T10:47:51;101667.00;;;32.13;42.05
28004;BME280;15330;51.234;6.754;2023-08-21T10:50:16;101668.78;;;32.38;40.55
28004;BME280;15330;51.234;6.754;2023-08-21T10:52:43;101671.25;;;31.00;41.40
28004;BME280;15330;51.234;6.754;2023-08-21T10:55:11;101667.56;;;31.51;41.47
28004;BME280;15330;51.234;6.754;2023-08-21T10:57:37;101671.94;;;31.57;42.25
28004;BME280;15330;51.234;6.754;2023-08-21T11:00:04;101674.69;;;31.72;40.13
28004;BME280;15330;51.234;6.754;2023-08-21T11:02:32;101678.28;;;32.61;39.66
28004;BME280;15330;51.234;6.754;2023-08-21T11:05:00;101669.69;;;32.96;38.52
28004;BME280;15330;51.234;6.754;2023-08-21T11:07:26;101674.06;;;33.02;38.28
28004;BME280;15330;51.234;6.754;2023-08-21T11:09:52;101679.47;;;32.55;38.63
28004;BME280;15330;51.234;6.754;2023-08-21T11:12:20;101669.09;;;30.82;40.74
28004;BME280;15330;51.234;6.754;2023-08-21T11:14:47;101679.25;;;30.41;42.61
28004;BME280;15330;51.234;6.754;2023-08-21T11:17:13;101673.50;;;30.68;41.79
28004;BME280;15330;51.234;6.754;2023-08-21T11:19:39;101672.72;;;31.78;41.05
28004;BME280;15330;51.234;6.754;2023-08-21T11:22:05;101674.25;;;31.99;40.89
28004;BME280;15330;51.234;6.754;2023-08-21T11:24:43;101680.59;;;30.23;42.48
28004;BME280;15330;51.234;6.754;2023-08-21T11:27:14;101682.28;;;30.19;42.87
28004;BME280;15330;51.234;6.754;2023-08-21T11:29:49;101681.06;;;31.67;41.78
28004;BME280;15330;51.234;6.754;2023-08-21T11:32:17;101679.28;;;29.64;43.57
28004;BME280;15330;51.234;6.754;2023-08-21T11:34:54;101689.25;;;30.68;41.49
28004;BME280;15330;51.234;6.754;2023-08-21T11:37:24;101690.00;;;29.13;44.71
28004;BME280;15330;51.234;6.754;2023-08-21T11:39:52;101685.31;;;30.28;43.54
28004;BME280;15330;51.234;6.754;2023-08-21T11:42:19;101686.22;;;31.15;41.27
28004;BME280;15330;51.234;6.754;2023-08-21T11:44:50;101670.44;;;31.10;41.19
28004;BME280;15330;51.234;6.754;2023-08-21T11:47:17;101681.97;;;31.43;41.59
28004;BME280;15330;51.234;6.754;2023-08-21T11:49:44;101684.13;;;31.66;40.44
28004;BME280;15330;51.234;6.754;2023-08-21T11:52:13;101681.56;;;31.85;40.28
28004;BME280;15330;51.234;6.754;2023-08-21T11:54:40;101677.47;;;31.62;40.55
28004;BME280;15330;51.234;6.754;2023-08-21T11:57:13;101692.16;;;31.52;40.36
28004;BME280;15330;51.234;6.754;2023-08-21T11:59:40;101686.75;;;30.71;41.35
28004;BME280;15330;51.234;6.754;2023-08-21T12:02:17;101678.72;;;29.56;43.12
28004;BME280;15330;51.234;6.754;2023-08-21T12:04:43;101674.78;;;29.00;44.11
28004;BME280;15330;51.234;6.754;2023-08-21T12:07:09;101677.66;;;29.20;44.53
28004;BME280;15330;51.234;6.754;2023-08-21T12:09:35;101676.47;;;30.36;43.70
28004;BME280;15330;51.234;6.754;2023-08-21T12:12:03;101672.09;;;30.55;41.94
28004;BME280;15330;51.234;6.754;2023-08-21T12:14:29;101682.59;;;30.99;42.10
28004;BME280;15330;51.234;6.754;2023-08-21T12:16:55;101671.44;;;31.55;40.55
28004;BME280;15330;51.234;6.754;2023-08-21T12:19:24;101669.44;;;31.70;41.09
28004;BME280;15330;51.234;6.754;2023-08-21T12:21:50;101666.16;;;31.63;40.44
28004;BME280;15330;51.234;6.754;2023-08-21T12:24:16;101666.81;;;31.20;41.29
28004;BME280;15330;51.234;6.754;2023-08-21T12:26:41;101661.91;;;30.81;41.47
28004;BME280;15330;51.234;6.754;2023-08-21T12:29:06;101658.16;;;31.47;40.97
28004;BME280;15330;51.234;6.754;2023-08-21T12:31:32;101661.63;;;30.78;40.99
28004;BME280;15330;51.234;6.754;2023-08-21T12:33:57;101658.84;;;30.93;40.89
28004;BME280;15330;51.234;6.754;2023-08-21T12:36:23;101651.56;;;29.96;42.69
28004;BME280;15330;51.234;6.754;2023-08-21T12:38:48;101663.53;;;30.47;42.33
28004;BME280;15330;51.234;6.754;2023-08-21T12:41:14;101659.09;;;30.31;42.48
28004;BME280;15330;51.234;6.754;2023-08-21T12:43:39;101652.22;;;30.69;42.06
28004;BME280;15330;51.234;6.754;2023-08-21T12:46:05;101648.34;;;31.10;41.17
28004;BME280;15330;51.234;6.754;2023-08-21T12:48:30;101658.31;;;30.60;41.27
28004;BME280;15330;51.234;6.754;2023-08-21T12:50:56;101651.63;;;30.97;40.89